sensor_id;sensor_type;location;lat;lon;timestamp;P1;durP1;ratioP1;P2;durP2;ratioP2
33672;SDS011;20011;51.510;9.942;2023-03-01T11:55:36;11.40;;;5.97;;
33672;SDS011;20011;51.510;9.942;2023-03-01T12:04:05;9.43;;;5.00;;
33672;SDS011;20011;51.510;9.942;2023-03-01T12:06:57;11.07;;;6.22;;
33672;SDS011;20011;51.510;9.942;2023-03-01T12:13:05;13.45;;;5.78;;
33672;SDS011;20011;51.510;9.942;2023-03-01T12:33:53;14.20;;;6.30;;
33672;SDS011;20011;51.510;9.942;2023-03-01T12:36:43;14.00;;;6.35;;
33672;SDS011;20011;51.510;9.942;2023-03-01T12:47:39;10.20;;;5.90;;
33672;SDS011;20011;51.510;9.942;2023-03-01T12:50:17;14.18;;;6.97;;
33672;SDS011;20011;51.510;9.942;2023-03-01T12:52:51;10.38;;;6.65;;
33672;SDS011;20011;51.510;9.942;2023-03-01T13:06:50;18.48;;;6.90;;
33672;SDS011;20011;51.510;9.942;2023-03-01T13:11:53;12.80;;;6.93;;
33672;SDS011;20011;51.510;9.942;2023-03-01T13:16:49;14.32;;;7.28;;
33672;SDS011;20011;51.510;9.942;2023-03-01T13:19:21;13.98;;;7.00;;
33672;SDS011;20011;51.510;9.942;2023-03-01T13:21:50;13.73;;;6.57;;
33672;SDS011;20011;51.510;9.942;2023-03-01T13:24:28;12.90;;;6.40;;
33672;SDS011;20011;51.510;9.942;2023-03-01T13:37:46;14.98;;;6.80;;
33672;SDS011;20011;51.510;9.942;2023-03-01T13:42:49;14.90;;;8.00;;
33672;SDS011;20011;51.510;9.942;2023-03-01T13:45:40;14.25;;;6.88;;
33672;SDS011;20011;51.510;9.942;2023-03-01T13:48:28;15.48;;;7.88;;
33672;SDS011;20011;51.510;9.942;2023-03-01T13:51:03;15.75;;;6.05;;
33672;SDS011;20011;51.510;9.942;2023-03-01T13:53:35;12.30;;;6.15;;
33672;SDS011;20011;51.510;9.942;2023-03-01T13:56:12;12.60;;;6.53;;
33672;SDS011;20011;51.510;9.942;2023-03-01T13:58:47;10.73;;;6.07;;
33672;SDS011;20011;51.510;9.942;2023-03-01T14:01:24;10.35;;;5.75;;
33672;SDS011;20011;51.510;9.942;2023-03-01T14:03:54;10.85;;;6.43;;
33672;SDS011;20011;51.510;9.942;2023-03-01T14:06:23;12.10;;;6.28;;
33672;SDS011;20011;51.510;9.942;2023-03-01T14:19:56;15.02;;;6.82;;
33672;SDS011;20011;51.510;9.942;2023-03-01T14:22:34;10.57;;;5.97;;
33672;SDS011;20011;51.510;9.942;2023-03-01T14:27:36;11.00;;;5.68;;
33672;SDS011;20011;51.510;9.942;2023-03-01T14:30:11;11.90;;;5.53;;
33672;SDS011;20011;51.510;9.942;2023-03-01T14:32:41;10.25;;;5.70;;
33672;SDS011;20011;51.510;9.942;2023-03-01T14:35:19;8.23;;;4.53;;
33672;SDS011;20011;51.510;9.942;2023-03-01T14:37:51;8.63;;;5.57;;
33672;SDS011;20011;51.510;9.942;2023-03-01T14:40:22;13.45;;;5.70;;
33672;SDS011;20011;51.510;9.942;2023-03-01T14:42:52;8.13;;;4.93;;
33672;SDS011;20011;51.510;9.942;2023-03-01T14:45:20;13.45;;;5.65;;
33672;SDS011;20011;51.510;9.942;2023-03-01T14:47:50;8.65;;;4.90;;
33672;SDS011;20011;51.510;9.942;2023-03-01T14:52:56;11.05;;;5.47;;
33672;SDS011;20011;51.510;9.942;2023-03-01T14:55:33;7.80;;;5.07;;
33672;SDS011;20011;51.510;9.942;2023-03-01T14:58:11;11.38;;;5.95;;
33672;SDS011;20011;51.510;9.942;2023-03-01T15:00:45;13.80;;;5.72;;
33672;SDS011;20011;51.510;9.942;2023-03-01T15:03:23;9.30;;;5.10;;
33672;SDS011;20011;51.510;9.942;2023-03-01T15:05:59;13.23;;;5.63;;
33672;SDS011;20011;51.510;9.942;2023-03-01T15:08:28;13.23;;;5.50;;
33672;SDS011;20011;51.510;9.942;2023-03-01T15:11:33;13.02;;;5.28;;
33672;SDS011;20011;51.510;9.942;2023-03-01T15:13:57;9.45;;;5.20;;
33672;SDS011;20011;51.510;9.942;2023-03-01T15:16:31;11.20;;;5.43;;
33672;SDS011;20011;51.510;9.942;2023-03-01T15:19:00;12.80;;;6.53;;
33672;SDS011;20011;51.510;9.942;2023-03-01T15:26:49;12.50;;;5.32;;
33672;SDS011;20011;51.510;9.942;2023-03-01T15:29:21;11.05;;;5.35;;
33672;SDS011;20011;51.510;9.942;2023-03-01T15:32:03;10.25;;;5.93;;
33672;SDS011;20011;51.510;9.942;2023-03-01T15:34:33;10.38;;;5.53;;
33672;SDS011;20011;51.510;9.942;2023-03-01T15:37:05;12.27;;;6.07;;
33672;SDS011;20011;51.510;9.942;2023-03-01T15:39:41;10.07;;;5.13;;
33672;SDS011;20011;51.510;9.942;2023-03-01T15:45:11;12.63;;;4.95;;
33672;SDS011;20011;51.510;9.942;2023-03-01T15:47:53;8.32;;;4.78;;
33672;SDS011;20011;51.510;9.942;2023-03-01T15:50:27;8.20;;;4.75;;
33672;SDS011;20011;51.510;9.942;2023-03-01T15:52:56;8.48;;;4.32;;
33672;SDS011;20011;51.510;9.942;2023-03-01T15:55:25;9.90;;;4.13;;
33672;SDS011;20011;51.510;9.942;2023-03-01T16:00:27;9.23;;;4.72;;
33672;SDS011;20011;51.510;9.942;2023-03-01T16:02:55;8.02;;;4.72;;
33672;SDS011;20011;51.510;9.942;2023-03-01T16:07:51;9.30;;;4.35;;
33672;SDS011;20011;51.510;9.942;2023-03-01T16:10:18;9.65;;;4.50;;
33672;SDS011;20011;51.510;9.942;2023-03-01T16:12:46;6.07;;;3.63;;
33672;SDS011;20011;51.510;9.942;2023-03-01T16:15:18;6.57;;;3.97;;
33672;SDS011;20011;51.510;9.942;2023-03-01T16:17:55;6.93;;;4.03;;
33672;SDS011;20011;51.510;9.942;2023-03-01T16:20:24;8.00;;;4.45;;
33672;SDS011;20011;51.510;9.942;2023-03-01T16:22:59;7.85;;;3.78;;
33672;SDS011;20011;51.510;9.942;2023-03-01T16:25:27;8.77;;;3.78;;
33672;SDS011;20011;51.510;9.942;2023-03-01T16:27:55;7.93;;;3.78;;
33672;SDS011;20011;51.510;9.942;2023-03-01T16:30:24;7.38;;;4.00;;
33672;SDS011;20011;51.510;9.942;2023-03-01T16:32:52;11.52;;;4.38;;
33672;SDS011;20011;51.510;9.942;2023-03-01T16:35:20;8.40;;;4.70;;
33672;SDS011;20011;51.510;9.942;2023-03-01T16:37:48;7.57;;;3.85;;
33672;SDS011;20011;51.510;9.942;2023-03-01T16:40:19;8.07;;;4.18;;
33672;SDS011;20011;51.510;9.942;2023-03-01T16:42:48;8.70;;;3.75;;
33672;SDS011;20011;51.510;9.942;2023-03-01T16:45:17;8.50;;;4.60;;
33672;SDS011;20011;51.510;9.942;2023-03-01T16:47:50;7.97;;;3.80;;
33672;SDS011;20011;51.510;9.942;2023-03-01T16:50:21;8.45;;;4.65;;
33672;SDS011;20011;51.510;9.942;2023-03-01T16:52:48;7.18;;;4.00;;
33672;SDS011;20011;51.510;9.942;2023-03-01T16:55:15;7.35;;;4.28;;
33672;SDS011;20011;51.510;9.942;2023-03-01T16:57:42;7.35;;;3.95;;
33672;SDS011;20011;51.510;9.942;2023-03-01T17:00:10;9.18;;;4.55;;
33672;SDS011;20011;51.510;9.942;2023-03-01T17:02:40;10.35;;;4.90;;
33672;SDS011;20011;51.510;9.942;2023-03-01T17:05:08;6.88;;;3.97;;
33672;SDS011;20011;51.510;9.942;2023-03-01T17:07:36;11.25;;;4.45;;
33672;SDS011;20011;51.510;9.942;2023-03-01T17:10:04;6.60;;;4.18;;
33672;SDS011;20011;51.510;9.942;2023-03-01T17:12:34;11.30;;;5.13;;
33672;SDS011;20011;51.510;9.942;2023-03-01T17:15:03;6.70;;;3.83;;
33672;SDS011;20011;51.510;9.942;2023-03-01T17:17:31;9.10;;;4.70;;
33672;SDS011;20011;51.510;9.942;2023-03-01T17:19:58;10.73;;;5.18;;
33672;SDS011;20011;51.510;9.942;2023-03-01T17:22:29;10.68;;;5.70;;
33672;SDS011;20011;51.510;9.942;2023-03-01T17:24:56;6.80;;;4.15;;
33672;SDS011;20011;51.510;9.942;2023-03-01T17:27:23;8.63;;;5.03;;
33672;SDS011;20011;51.510;9.942;2023-03-01T17:29:51;9.27;;;4.35;;
33672;SDS011;20011;51.510;9.942;2023-03-01T17:32:18;8.70;;;5.22;;
33672;SDS011;20011;51.510;9.942;2023-03-01T17:34:46;9.98;;;5.50;;
33672;SDS011;20011;51.510;9.942;2023-03-01T17:37:13;8.80;;;4.65;;
33672;SDS011;20011;51.510;9.942;2023-03-01T17:39:40;9.68;;;4.90;;
33672;SDS011;20011;51.510;9.942;2023-03-01T17:42:07;7.43;;;4.43;;
33672;SDS011;20011;51.510;9.942;2023-03-01T17:44:34;9.45;;;5.07;;
33672;SDS011;20011;51.510;9.942;2023-03-01T17:47:02;10.25;;;5.18;;
33672;SDS011;20011;51.510;9.942;2023-03-01T17:49:30;11.20;;;4.70;;
33672;SDS011;20011;51.510;9.942;2023-03-01T17:51:58;9.00;;;4.88;;
33672;SDS011;20011;51.510;9.942;2023-03-01T17:54:26;10.60;;;5.13;;
33672;SDS011;20011;51.510;9.942;2023-03-01T17:56:53;8.45;;;5.03;;
33672;SDS011;20011;51.510;9.942;2023-03-01T17:59:21;8.07;;;4.75;;
33672;SDS011;20011;51.510;9.942;2023-03-01T18:01:49;10.00;;;4.88;;
33672;SDS011;20011;51.510;9.942;2023-03-01T18:04:16;10.43;;;6.45;;
33672;SDS011;20011;51.510;9.942;2023-03-01T18:06:43;11.18;;;4.95;;
33672;SDS011;20011;51.510;9.942;2023-03-01T18:09:11;10.52;;;5.90;;
33672;SDS011;20011;51.510;9.942;2023-03-01T18:11:38;8.05;;;4.63;;
33672;SDS011;20011;51.510;9.942;2023-03-01T18:14:07;9.85;;;5.85;;
33672;SDS011;20011;51.510;9.942;2023-03-01T18:16:34;9.68;;;5.32;;
33672;SDS011;20011;51.510;9.942;2023-03-01T18:19:02;9.20;;;5.47;;
33672;SDS011;20011;51.510;9.942;2023-03-01T18:21:29;10.95;;;6.03;;
33672;SDS011;20011;51.510;9.942;2023-03-01T18:23:57;11.30;;;5.20;;
33672;SDS011;20011;51.510;9.942;2023-03-01T18:28:55;10.73;;;5.10;;
33672;SDS011;20011;51.510;9.942;2023-03-01T18:31:28;13.18;;;5.75;;
33672;SDS011;20011;51.510;9.942;2023-03-01T18:36:27;11.95;;;5.07;;
33672;SDS011;20011;51.510;9.942;2023-03-01T18:38:57;11.27;;;6.00;;
33672;SDS011;20011;51.510;9.942;2023-03-01T18:41:24;10.32;;;5.35;;
33672;SDS011;20011;51.510;9.942;2023-03-01T18:43:53;13.32;;;5.93;;
33672;SDS011;20011;51.510;9.942;2023-03-01T18:46:21;15.82;;;5.63;;
33672;SDS011;20011;51.510;9.942;2023-03-01T18:48:48;12.18;;;5.95;;
33672;SDS011;20011;51.510;9.942;2023-03-01T18:51:18;13.65;;;5.65;;
33672;SDS011;20011;51.510;9.942;2023-03-01T18:56:14;9.68;;;5.63;;
33672;SDS011;20011;51.510;9.942;2023-03-01T18:58:41;12.77;;;6.65;;
33672;SDS011;20011;51.510;9.942;2023-03-01T19:01:13;11.48;;;5.90;;
33672;SDS011;20011;51.510;9.942;2023-03-01T19:03:41;16.02;;;6.55;;
33672;SDS011;20011;51.510;9.942;2023-03-01T19:06:08;13.68;;;7.03;;
33672;SDS011;20011;51.510;9.942;2023-03-01T19:08:35;15.40;;;7.15;;
33672;SDS011;20011;51.510;9.942;2023-03-01T19:11:04;16.67;;;8.82;;
33672;SDS011;20011;51.510;9.942;2023-03-01T19:13:33;13.07;;;8.25;;
33672;SDS011;20011;51.510;9.942;2023-03-01T19:16:01;15.85;;;9.05;;
33672;SDS011;20011;51.510;9.942;2023-03-01T19:18:40;16.08;;;8.48;;
33672;SDS011;20011;51.510;9.942;2023-03-01T19:21:09;18.67;;;8.67;;
33672;SDS011;20011;51.510;9.942;2023-03-01T19:23:37;16.83;;;9.23;;
33672;SDS011;20011;51.510;9.942;2023-03-01T19:26:06;18.30;;;7.95;;
33672;SDS011;20011;51.510;9.942;2023-03-01T19:28:35;14.63;;;8.20;;
33672;SDS011;20011;51.510;9.942;2023-03-01T19:31:09;14.95;;;7.95;;
33672;SDS011;20011;51.510;9.942;2023-03-01T19:33:38;17.52;;;7.88;;
33672;SDS011;20011;51.510;9.942;2023-03-01T19:36:05;14.75;;;8.27;;
33672;SDS011;20011;51.510;9.942;2023-03-01T19:38:34;14.15;;;7.80;;
33672;SDS011;20011;51.510;9.942;2023-03-01T19:41:05;16.70;;;8.82;;
33672;SDS011;20011;51.510;9.942;2023-03-01T19:43:34;16.63;;;9.02;;
33672;SDS011;20011;51.510;9.942;2023-03-01T19:46:02;15.27;;;8.23;;
33672;SDS011;20011;51.510;9.942;2023-03-01T19:48:29;17.85;;;8.75;;
33672;SDS011;20011;51.510;9.942;2023-03-01T19:50:57;17.95;;;9.55;;
33672;SDS011;20011;51.510;9.942;2023-03-01T19:53:24;24.83;;;10.13;;
33672;SDS011;20011;51.510;9.942;2023-03-01T19:55:57;24.45;;;13.07;;
33672;SDS011;20011;51.510;9.942;2023-03-01T19:58:26;27.13;;;14.00;;
33672;SDS011;20011;51.510;9.942;2023-03-01T20:00:54;31.35;;;15.10;;
33672;SDS011;20011;51.510;9.942;2023-03-01T20:03:25;32.13;;;14.32;;
33672;SDS011;20011;51.510;9.942;2023-03-01T20:05:53;28.00;;;13.10;;
33672;SDS011;20011;51.510;9.942;2023-03-01T20:08:21;29.83;;;13.05;;
33672;SDS011;20011;51.510;9.942;2023-03-01T20:10:50;23.00;;;11.65;;
33672;SDS011;20011;51.510;9.942;2023-03-01T20:13:17;26.00;;;12.63;;
33672;SDS011;20011;51.510;9.942;2023-03-01T20:15:46;23.38;;;11.98;;
33672;SDS011;20011;51.510;9.942;2023-03-01T20:18:13;26.77;;;12.10;;
33672;SDS011;20011;51.510;9.942;2023-03-01T20:20:41;30.20;;;13.95;;
33672;SDS011;20011;51.510;9.942;2023-03-01T20:23:07;30.30;;;14.35;;
33672;SDS011;20011;51.510;9.942;2023-03-01T20:25:34;28.33;;;14.40;;
33672;SDS011;20011;51.510;9.942;2023-03-01T20:28:01;31.40;;;14.43;;
33672;SDS011;20011;51.510;9.942;2023-03-01T20:30:28;26.08;;;13.13;;
33672;SDS011;20011;51.510;9.942;2023-03-01T20:32:55;27.23;;;13.18;;
33672;SDS011;20011;51.510;9.942;2023-03-01T20:35:22;30.00;;;11.55;;
33672;SDS011;20011;51.510;9.942;2023-03-01T20:37:50;21.10;;;10.35;;
33672;SDS011;20011;51.510;9.942;2023-03-01T20:40:18;23.23;;;10.48;;
33672;SDS011;20011;51.510;9.942;2023-03-01T20:42:55;25.90;;;9.95;;
33672;SDS011;20011;51.510;9.942;2023-03-01T20:45:23;20.10;;;10.63;;
33672;SDS011;20011;51.510;9.942;2023-03-01T20:47:53;21.52;;;8.98;;
33672;SDS011;20011;51.510;9.942;2023-03-01T20:50:21;18.88;;;9.25;;
33672;SDS011;20011;51.510;9.942;2023-03-01T20:52:48;20.98;;;10.68;;
33672;SDS011;20011;51.510;9.942;2023-03-01T20:55:15;27.85;;;13.60;;
33672;SDS011;20011;51.510;9.942;2023-03-01T20:57:42;23.13;;;12.40;;
33672;SDS011;20011;51.510;9.942;2023-03-01T21:00:09;14.55;;;9.40;;
33672;SDS011;20011;51.510;9.942;2023-03-01T21:02:36;21.55;;;8.88;;
33672;SDS011;20011;51.510;9.942;2023-03-01T21:05:04;15.05;;;8.45;;
33672;SDS011;20011;51.510;9.942;2023-03-01T21:07:31;16.80;;;7.28;;
33672;SDS011;20011;51.510;9.942;2023-03-01T21:09:59;13.07;;;6.82;;
33672;SDS011;20011;51.510;9.942;2023-03-01T21:12:26;13.25;;;7.55;;
33672;SDS011;20011;51.510;9.942;2023-03-01T21:14:53;14.45;;;7.30;;
33672;SDS011;20011;51.510;9.942;2023-03-01T21:17:20;16.50;;;7.35;;
33672;SDS011;20011;51.510;9.942;2023-03-01T21:19:47;14.15;;;6.47;;
33672;SDS011;20011;51.510;9.942;2023-03-01T21:22:15;11.55;;;6.30;;
33672;SDS011;20011;51.510;9.942;2023-03-01T21:24:42;13.25;;;6.43;;
33672;SDS011;20011;51.510;9.942;2023-03-01T21:27:09;10.10;;;6.47;;
33672;SDS011;20011;51.510;9.942;2023-03-01T21:29:37;11.40;;;5.63;;
33672;SDS011;20011;51.510;9.942;2023-03-01T21:32:06;18.38;;;6.70;;
33672;SDS011;20011;51.510;9.942;2023-03-01T21:34:34;9.18;;;6.05;;
33672;SDS011;20011;51.510;9.942;2023-03-01T21:37:02;14.35;;;6.80;;
33672;SDS011;20011;51.510;9.942;2023-03-01T21:39:31;10.88;;;6.63;;
33672;SDS011;20011;51.510;9.942;2023-03-01T21:41:59;9.43;;;5.40;;
33672;SDS011;20011;51.510;9.942;2023-03-01T21:44:28;13.85;;;6.43;;
33672;SDS011;20011;51.510;9.942;2023-03-01T21:46:56;12.30;;;6.78;;
33672;SDS011;20011;51.510;9.942;2023-03-01T21:49:24;10.55;;;6.45;;
33672;SDS011;20011;51.510;9.942;2023-03-01T21:51:52;12.23;;;6.90;;
33672;SDS011;20011;51.510;9.942;2023-03-01T21:54:19;11.70;;;6.20;;
33672;SDS011;20011;51.510;9.942;2023-03-01T21:56:46;12.10;;;6.90;;
33672;SDS011;20011;51.510;9.942;2023-03-01T21:59:15;12.02;;;7.03;;
33672;SDS011;20011;51.510;9.942;2023-03-01T22:01:46;12.43;;;6.57;;
33672;SDS011;20011;51.510;9.942;2023-03-01T22:04:14;20.42;;;6.47;;
33672;SDS011;20011;51.510;9.942;2023-03-01T22:06:43;16.90;;;7.60;;
33672;SDS011;20011;51.510;9.942;2023-03-01T22:11:41;14.93;;;6.95;;
33672;SDS011;20011;51.510;9.942;2023-03-01T22:14:12;15.32;;;7.18;;
33672;SDS011;20011;51.510;9.942;2023-03-01T22:16:40;15.90;;;7.88;;
33672;SDS011;20011;51.510;9.942;2023-03-01T22:19:09;19.70;;;6.82;;
33672;SDS011;20011;51.510;9.942;2023-03-01T22:21:38;14.25;;;6.43;;
33672;SDS011;20011;51.510;9.942;2023-03-01T22:24:07;19.20;;;8.07;;
33672;SDS011;20011;51.510;9.942;2023-03-01T22:26:36;16.00;;;8.68;;
33672;SDS011;20011;51.510;9.942;2023-03-01T22:29:06;22.80;;;10.95;;
33672;SDS011;20011;51.510;9.942;2023-03-01T22:31:34;26.67;;;12.65;;
33672;SDS011;20011;51.510;9.942;2023-03-01T22:34:01;23.75;;;11.93;;
33672;SDS011;20011;51.510;9.942;2023-03-01T22:36:28;26.38;;;12.13;;
33672;SDS011;20011;51.510;9.942;2023-03-01T22:38:56;23.60;;;11.70;;
33672;SDS011;20011;51.510;9.942;2023-03-01T22:41:29;32.38;;;11.52;;
33672;SDS011;20011;51.510;9.942;2023-03-01T22:43:59;19.77;;;10.27;;
33672;SDS011;20011;51.510;9.942;2023-03-01T22:46:27;24.08;;;10.20;;
33672;SDS011;20011;51.510;9.942;2023-03-01T22:48:54;20.35;;;9.45;;
33672;SDS011;20011;51.510;9.942;2023-03-01T22:51:26;22.42;;;9.88;;
33672;SDS011;20011;51.510;9.942;2023-03-01T22:53:58;20.75;;;9.07;;
33672;SDS011;20011;51.510;9.942;2023-03-01T22:56:27;16.52;;;9.10;;
33672;SDS011;20011;51.510;9.942;2023-03-01T22:59:01;22.85;;;10.50;;
33672;SDS011;20011;51.510;9.942;2023-03-01T23:01:29;17.55;;;9.07;;
33672;SDS011;20011;51.510;9.942;2023-03-01T23:03:57;21.77;;;9.65;;
33672;SDS011;20011;51.510;9.942;2023-03-01T23:06:24;27.00;;;8.32;;
33672;SDS011;20011;51.510;9.942;2023-03-01T23:08:57;18.50;;;9.32;;
33672;SDS011;20011;51.510;9.942;2023-03-01T23:11:26;19.95;;;10.00;;
33672;SDS011;20011;51.510;9.942;2023-03-01T23:13:53;19.50;;;9.18;;
33672;SDS011;20011;51.510;9.942;2023-03-01T23:16:20;18.25;;;9.73;;
33672;SDS011;20011;51.510;9.942;2023-03-01T23:18:52;24.90;;;10.88;;
33672;SDS011;20011;51.510;9.942;2023-03-01T23:21:20;20.30;;;9.73;;
33672;SDS011;20011;51.510;9.942;2023-03-01T23:23:47;21.17;;;9.48;;
33672;SDS011;20011;51.510;9.942;2023-03-01T23:26:14;15.57;;;8.68;;
33672;SDS011;20011;51.510;9.942;2023-03-01T23:28:42;21.50;;;12.13;;
33672;SDS011;20011;51.510;9.942;2023-03-01T23:31:10;25.63;;;11.88;;
33672;SDS011;20011;51.510;9.942;2023-03-01T23:33:39;21.30;;;11.57;;
33672;SDS011;20011;51.510;9.942;2023-03-01T23:38:45;20.35;;;8.57;;
33672;SDS011;20011;51.510;9.942;2023-03-01T23:41:14;14.60;;;6.68;;
33672;SDS011;20011;51.510;9.942;2023-03-01T23:43:43;20.27;;;7.72;;
33672;SDS011;20011;51.510;9.942;2023-03-01T23:46:15;12.57;;;6.90;;
33672;SDS011;20011;51.510;9.942;2023-03-01T23:48:43;16.27;;;7.35;;
33672;SDS011;20011;51.510;9.942;2023-03-01T23:51:11;18.08;;;6.35;;
33672;SDS011;20011;51.510;9.942;2023-03-01T23:53:40;11.70;;;5.75;;
33672;SDS011;20011;51.510;9.942;2023-03-01T23:56:09;21.00;;;6.57;;
33672;SDS011;20011;51.510;9.942;2023-03-01T23:58:38;12.77;;;5.93;;
